createdAt,value
2022-07-27T00:00:17.295Z,81.15
2022-07-27T00:03:02.561Z,80.86
2022-07-27T00:05:47.863Z,79.36
2022-07-27T00:08:33.528Z,79.66
2022-07-27T00:11:18.486Z,80.39
2022-07-27T00:14:04.121Z,81.88
2022-07-27T00:16:49.489Z,85.45
2022-07-27T00:19:34.752Z,88.25
2022-07-27T00:22:19.711Z,84.36
2022-07-27T00:25:05.674Z,84.08
2022-07-27T00:27:50.664Z,84.64
2022-07-27T00:30:36.355Z,82.98
2022-07-27T00:33:21.704Z,83.55
2022-07-27T00:36:07.418Z,83.40
2022-07-27T00:38:52.424Z,82.29
2022-07-27T00:41:37.410Z,82.40
2022-07-27T00:44:30.011Z,81.19
2022-07-27T00:47:15.201Z,81.31
2022-07-27T00:50:01.090Z,82.39
2022-07-27T00:52:46.659Z,83.24
2022-07-27T00:55:32.792Z,85.97
2022-07-27T00:58:18.735Z,89.94
2022-07-27T01:01:04.670Z,90.93
2022-07-27T01:03:49.861Z,89.60
2022-07-27T01:06:35.405Z,89.85
2022-07-27T01:09:20.843Z,90.64
2022-07-27T01:12:08.316Z,90.90
2022-07-27T01:14:54.888Z,89.99
2022-07-27T01:17:39.986Z,90.11
2022-07-27T01:20:25.623Z,90.80
2022-07-27T01:23:10.790Z,91.90
2022-07-27T01:25:55.991Z,92.04
2022-07-27T01:28:44.262Z,91.04
2022-07-27T01:31:30.171Z,91.98
2022-07-27T01:34:15.572Z,91.51
2022-07-27T01:37:01.397Z,91.05
2022-07-27T01:39:46.582Z,90.96
2022-07-27T01:42:32.005Z,91.47
2022-07-27T01:45:17.455Z,90.33
2022-07-27T01:48:02.596Z,89.03
2022-07-27T01:50:47.820Z,88.73
2022-07-27T01:53:33.049Z,88.79
2022-07-27T01:56:18.347Z,89.57
2022-07-27T01:59:03.099Z,89.61
2022-07-27T02:01:48.021Z,90.01
2022-07-27T02:04:33.337Z,88.60
2022-07-27T02:07:18.671Z,88.95
2022-07-27T02:10:04.433Z,89.33
2022-07-27T02:12:50.901Z,89.11
2022-07-27T02:15:43.268Z,88.51
2022-07-27T02:18:36.259Z,90.12
2022-07-27T02:21:22.145Z,89.64
2022-07-27T02:24:07.254Z,89.68
2022-07-27T02:26:52.663Z,89.09
2022-07-27T02:29:37.822Z,89.14
2022-07-27T02:32:23.001Z,89.83
2022-07-27T02:35:18.640Z,88.90
2022-07-27T02:38:05.130Z,87.82
2022-07-27T02:40:50.147Z,88.32
2022-07-27T02:43:35.343Z,88.41
2022-07-27T02:46:20.831Z,89.18
2022-07-27T02:49:06.120Z,87.55
2022-07-27T02:51:52.979Z,87.59
2022-07-27T02:54:38.473Z,87.19
2022-07-27T02:57:24.030Z,89.98
2022-07-27T03:00:14.415Z,92.04
2022-07-27T03:02:59.774Z,91.92
2022-07-27T03:05:45.078Z,90.45
2022-07-27T03:08:30.325Z,89.34
2022-07-27T03:11:15.792Z,89.25
2022-07-27T03:14:01.373Z,89.06
2022-07-27T03:16:46.835Z,89.98
2022-07-27T03:19:32.264Z,88.59
2022-07-27T03:22:17.071Z,89.53
2022-07-27T03:25:02.600Z,90.34
2022-07-27T03:27:47.722Z,91.11
2022-07-27T03:30:33.195Z,92.51
2022-07-27T03:33:18.667Z,93.04
2022-07-27T03:36:04.173Z,94.05
2022-07-27T03:38:49.239Z,94.65
2022-07-27T03:41:34.882Z,94.35
2022-07-27T03:44:20.119Z,94.22
2022-07-27T03:47:05.543Z,95.71
2022-07-27T03:49:50.807Z,96.25
2022-07-27T03:52:36.167Z,96.90
2022-07-27T03:55:21.945Z,97.94
2022-07-27T03:58:06.985Z,97.80
2022-07-27T04:00:52.500Z,97.58
2022-07-27T04:03:42.392Z,96.33
2022-07-27T04:06:29.473Z,95.37
2022-07-27T04:09:14.719Z,95.11
2022-07-27T04:12:00.426Z,95.69
2022-07-27T04:14:46.376Z,95.78
2022-07-27T04:17:56.350Z,95.44
2022-07-27T04:20:36.878Z,94.86
2022-07-27T04:23:22.286Z,96.06
2022-07-27T04:26:07.136Z,95.55
2022-07-27T04:28:53.152Z,94.58
2022-07-27T04:31:38.406Z,93.86
2022-07-27T04:34:24.002Z,93.78
2022-07-27T04:37:09.285Z,96.17
2022-07-27T04:39:58.036Z,97.62
2022-07-27T04:42:49.548Z,97.56
2022-07-27T04:45:35.169Z,96.55
2022-07-27T04:48:20.116Z,95.92
2022-07-27T04:51:05.644Z,94.00
2022-07-27T04:53:53.440Z,93.77
2022-07-27T04:56:43.715Z,93.93
2022-07-27T04:59:29.022Z,93.23
2022-07-27T05:02:13.940Z,93.07
2022-07-27T05:05:02.237Z,93.32
2022-07-27T05:07:47.692Z,93.62
2022-07-27T05:10:33.229Z,92.54
2022-07-27T05:13:17.939Z,91.31
2022-07-27T05:16:03.014Z,91.25
2022-07-27T05:18:48.372Z,90.70
2022-07-27T05:21:33.883Z,91.07
2022-07-27T05:24:19.080Z,90.13
2022-07-27T05:27:04.363Z,90.28
2022-07-27T05:29:49.334Z,89.95
2022-07-27T05:32:35.162Z,90.17
2022-07-27T05:35:21.906Z,89.55
2022-07-27T05:38:07.057Z,89.75
2022-07-27T05:40:52.309Z,90.26
2022-07-27T05:43:37.270Z,90.67
2022-07-27T05:46:23.139Z,89.90
2022-07-27T05:49:08.716Z,89.87
2022-07-27T05:51:53.844Z,91.95
2022-07-27T05:54:39.022Z,93.05
2022-07-27T05:57:23.978Z,92.24
2022-07-27T06:00:10.807Z,92.54
2022-07-27T06:02:56.124Z,91.69
2022-07-27T06:05:41.481Z,91.65
2022-07-27T06:08:26.804Z,91.18
2022-07-27T06:11:12.448Z,90.50
2022-07-27T06:13:57.526Z,89.73
2022-07-27T06:16:45.356Z,89.83
2022-07-27T06:19:36.082Z,89.30
2022-07-27T06:22:21.761Z,89.05
2022-07-27T06:25:07.573Z,88.23
2022-07-27T06:27:53.179Z,88.12
2022-07-27T06:30:38.603Z,86.36
2022-07-27T06:33:32.355Z,85.97
2022-07-27T06:36:17.803Z,85.13
2022-07-27T06:39:03.213Z,85.50
2022-07-27T06:41:48.541Z,85.43
2022-07-27T06:44:33.949Z,84.58
2022-07-27T06:47:19.726Z,82.80
2022-07-27T06:50:05.689Z,84.44
2022-07-27T06:52:51.122Z,81.84
2022-07-27T06:55:36.550Z,80.24
2022-07-27T06:58:21.350Z,81.28
2022-07-27T07:01:06.748Z,81.82
2022-07-27T07:03:52.082Z,81.37
2022-07-27T07:06:37.343Z,78.08
2022-07-27T07:09:22.614Z,78.03
2022-07-27T07:12:07.939Z,78.07
2022-07-27T07:14:53.210Z,77.22
2022-07-27T07:17:38.227Z,75.42
2022-07-27T07:20:23.923Z,74.42
2022-07-27T07:23:09.684Z,72.18
2022-07-27T07:25:55.089Z,69.84
2022-07-27T07:28:40.498Z,70.68
2022-07-27T07:31:25.756Z,67.62
2022-07-27T07:34:10.725Z,66.80
2022-07-27T07:36:56.152Z,64.32
2022-07-27T07:39:41.589Z,65.08
2022-07-27T07:42:26.904Z,65.48
2022-07-27T07:45:12.519Z,64.30
2022-07-27T07:47:58.145Z,63.73
2022-07-27T07:50:43.378Z,61.93
2022-07-27T07:53:28.723Z,62.38
2022-07-27T07:56:14.117Z,62.55
2022-07-27T07:58:59.423Z,59.97
2022-07-27T08:01:44.341Z,57.52
2022-07-27T08:04:29.927Z,58.19
2022-07-27T08:07:15.007Z,57.78
2022-07-27T08:10:00.338Z,58.14
2022-07-27T08:12:48.728Z,57.83
2022-07-27T08:15:35.921Z,58.33
2022-07-27T08:18:22.048Z,59.78
2022-07-27T08:21:07.335Z,57.74
2022-07-27T08:23:53.434Z,55.96
2022-07-27T08:26:43.570Z,53.13
2022-07-27T08:29:36.546Z,53.08
2022-07-27T08:32:22.183Z,52.83
2022-07-27T08:35:07.775Z,50.24
2022-07-27T08:37:53.632Z,48.23
2022-07-27T08:40:42.765Z,47.05
2022-07-27T08:46:46.860Z,48.86
2022-07-27T08:49:43.041Z,47.42
2022-07-27T08:52:29.323Z,49.64
2022-07-27T08:55:19.649Z,49.71
2022-07-27T08:58:06.276Z,51.46
2022-07-27T09:00:51.993Z,53.52
2022-07-27T09:03:37.287Z,52.89
2022-07-27T09:06:42.652Z,55.30
2022-07-27T09:09:27.838Z,58.04
2022-07-27T09:12:12.876Z,56.18
2022-07-27T09:15:04.426Z,55.78
2022-07-27T09:17:50.367Z,54.54
2022-07-27T09:20:35.578Z,54.71
2022-07-27T09:23:26.372Z,58.57
2022-07-27T09:26:30.053Z,59.51
2022-07-27T09:29:17.204Z,60.79
2022-07-27T09:32:14.189Z,60.94
2022-07-27T09:35:14.851Z,59.08
2022-07-27T09:38:23.727Z,57.66
2022-07-27T09:41:09.114Z,54.31
2022-07-27T09:44:30.570Z,54.20
2022-07-27T09:47:24.630Z,55.00
2022-07-27T09:50:21.241Z,57.18
2022-07-27T09:53:41.359Z,60.48
2022-07-27T09:56:30.139Z,58.83
2022-07-27T09:59:18.889Z,59.26
2022-07-27T10:02:05.616Z,57.74
2022-07-27T10:04:50.878Z,57.59
2022-07-27T10:07:36.263Z,56.38
2022-07-27T10:10:23.757Z,57.02
2022-07-27T10:13:09.155Z,56.93
2022-07-27T10:15:55.128Z,58.16
2022-07-27T10:18:56.030Z,56.25
2022-07-27T10:21:45.815Z,57.17
2022-07-27T10:24:33.382Z,56.55
2022-07-27T10:27:29.180Z,55.98
2022-07-27T10:30:17.256Z,55.80
2022-07-27T10:33:36.720Z,56.81
2022-07-27T10:36:31.277Z,56.78
2022-07-27T10:39:38.482Z,57.05
2022-07-27T10:42:30.774Z,52.98
2022-07-27T10:45:17.614Z,54.64
2022-07-27T10:48:02.693Z,53.42
2022-07-27T10:50:48.095Z,53.23
2022-07-27T10:54:10.566Z,52.68
2022-07-27T10:56:48.240Z,52.25
2022-07-27T11:00:07.041Z,48.76
2022-07-27T11:02:44.325Z,47.66
2022-07-27T11:05:59.021Z,49.39
2022-07-27T11:08:47.514Z,50.12
2022-07-27T11:11:33.653Z,50.95
2022-07-27T11:14:19.329Z,49.70
2022-07-27T11:20:23.860Z,52.00
2022-07-27T11:26:29.636Z,52.30
2022-07-27T11:29:17.398Z,54.53
2022-07-27T11:32:03.744Z,55.35
2022-07-27T11:34:50.490Z,52.19
2022-07-27T11:37:35.376Z,51.47
2022-07-27T11:40:53.804Z,52.61
2022-07-27T11:43:37.170Z,51.27
2022-07-27T11:46:25.770Z,50.64
2022-07-27T11:49:12.254Z,48.28
2022-07-27T11:52:00.589Z,50.72
2022-07-27T11:58:05.326Z,44.76
2022-07-27T12:00:50.121Z,42.16
2022-07-27T12:03:46.757Z,41.47
2022-07-27T12:06:33.555Z,40.40
2022-07-27T12:09:18.842Z,43.53
2022-07-27T12:12:19.029Z,46.18
2022-07-27T12:15:43.119Z,48.63
2022-07-27T12:18:18.169Z,51.18
2022-07-27T12:21:03.612Z,51.12
2022-07-27T12:23:50.766Z,51.73
2022-07-27T12:26:37.606Z,50.44
2022-07-27T12:29:22.382Z,49.71
2022-07-27T12:32:07.247Z,51.26
2022-07-27T12:34:52.967Z,50.98
2022-07-27T12:37:38.108Z,52.43
2022-07-27T12:40:23.617Z,52.09
2022-07-27T12:43:08.720Z,49.13
2022-07-27T12:45:55.195Z,47.05
2022-07-27T12:48:42.158Z,45.13
2022-07-27T12:51:27.430Z,44.10
2022-07-27T12:54:12.319Z,45.83
2022-07-27T12:56:57.290Z,46.36
2022-07-27T12:59:45.088Z,47.29
2022-07-27T13:02:30.066Z,46.92
2022-07-27T13:05:16.035Z,47.43
2022-07-27T13:08:01.772Z,50.22
2022-07-27T13:10:46.636Z,48.59
2022-07-27T13:13:31.484Z,48.83
2022-07-27T13:16:16.331Z,49.70
2022-07-27T13:19:01.862Z,50.35
2022-07-27T13:21:46.647Z,51.33
2022-07-27T13:24:31.653Z,50.92
2022-07-27T13:27:16.549Z,52.03
2022-07-27T13:30:07.725Z,52.37
2022-07-27T13:32:53.452Z,51.93
2022-07-27T13:35:39.143Z,50.84
2022-07-27T13:38:27.218Z,50.23
2022-07-27T13:41:13.135Z,48.73
2022-07-27T13:43:58.382Z,49.00
2022-07-27T13:46:44.572Z,49.67
2022-07-27T13:49:30.179Z,49.00
2022-07-27T13:52:15.362Z,48.86
2022-07-27T13:55:01.226Z,45.89
2022-07-27T13:57:46.735Z,46.82
2022-07-27T14:00:32.469Z,46.44
2022-07-27T14:03:17.937Z,50.27
2022-07-27T14:06:06.658Z,47.32
2022-07-27T14:08:54.225Z,47.99
2022-07-27T14:11:39.705Z,45.35
2022-07-27T14:14:36.397Z,46.44
2022-07-27T14:17:21.960Z,47.88
2022-07-27T14:20:08.234Z,48.23
2022-07-27T14:22:53.418Z,45.13
2022-07-27T14:25:38.855Z,45.87
2022-07-27T14:28:25.592Z,47.77
2022-07-27T14:31:12.239Z,44.31
2022-07-27T14:33:57.121Z,45.30
2022-07-27T14:36:42.684Z,45.80
2022-07-27T14:39:27.800Z,45.81
2022-07-27T14:42:12.993Z,45.53
2022-07-27T14:44:58.547Z,48.28
2022-07-27T14:47:43.774Z,52.35
2022-07-27T14:50:28.813Z,52.74
2022-07-27T14:53:14.134Z,52.85
2022-07-27T14:55:59.610Z,52.67
2022-07-27T14:58:44.512Z,52.52
2022-07-27T15:01:30.209Z,55.12
2022-07-27T15:04:15.573Z,52.79
2022-07-27T15:07:01.037Z,55.46
2022-07-27T15:09:47.165Z,54.34
2022-07-27T15:12:37.543Z,54.04
2022-07-27T15:15:23.072Z,53.33
2022-07-27T15:18:11.842Z,54.26
2022-07-27T15:20:57.189Z,54.10
2022-07-27T15:23:43.603Z,54.10
2022-07-27T15:26:28.719Z,53.46
2022-07-27T15:29:15.103Z,53.77
2022-07-27T15:32:00.748Z,53.42
2022-07-27T15:34:46.072Z,53.95
2022-07-27T15:37:31.600Z,54.29
2022-07-27T15:40:16.872Z,53.50
2022-07-27T15:43:07.173Z,54.15
2022-07-27T15:45:52.334Z,56.49
2022-07-27T15:48:37.746Z,54.41
2022-07-27T15:51:23.165Z,53.48
2022-07-27T15:54:09.685Z,53.45
2022-07-27T15:56:55.093Z,53.50
2022-07-27T15:59:40.263Z,55.08
2022-07-27T16:02:25.715Z,55.23
2022-07-27T16:05:11.533Z,55.55
2022-07-27T16:07:56.603Z,53.15
2022-07-27T16:10:42.928Z,54.24
2022-07-27T16:13:28.358Z,55.34
2022-07-27T16:16:14.183Z,54.20
2022-07-27T16:19:13.664Z,54.01
2022-07-27T16:21:59.452Z,54.33
2022-07-27T16:24:44.886Z,55.76
2022-07-27T16:27:30.189Z,56.92
2022-07-27T16:30:20.834Z,55.25
2022-07-27T16:33:06.348Z,53.99
2022-07-27T16:35:51.509Z,54.74
2022-07-27T16:38:49.635Z,55.60
2022-07-27T16:41:35.822Z,57.69
2022-07-27T16:44:21.503Z,55.00
2022-07-27T16:47:07.034Z,55.02
2022-07-27T16:49:56.238Z,54.78
2022-07-27T16:52:41.616Z,55.87
2022-07-27T16:55:27.885Z,57.20
2022-07-27T16:58:12.804Z,55.97
2022-07-27T17:01:27.605Z,56.31
2022-07-27T17:04:15.846Z,54.93
2022-07-27T17:07:00.883Z,56.40
2022-07-27T17:09:46.372Z,55.92
2022-07-27T17:12:48.498Z,55.17
2022-07-27T17:15:33.708Z,56.45
2022-07-27T17:18:20.090Z,55.09
2022-07-27T17:21:05.710Z,55.99
2022-07-27T17:23:54.168Z,57.36
2022-07-27T17:26:39.575Z,57.01
2022-07-27T17:29:24.929Z,56.92
2022-07-27T17:32:10.377Z,57.29
2022-07-27T17:34:55.719Z,57.55
2022-07-27T17:38:04.463Z,58.03
2022-07-27T17:40:46.491Z,56.62
2022-07-27T17:43:34.823Z,56.78
2022-07-27T17:46:20.586Z,56.56
2022-07-27T17:49:05.648Z,57.67
2022-07-27T17:52:04.016Z,57.59
2022-07-27T17:54:49.282Z,57.84
2022-07-27T18:01:46.544Z,56.82
2022-07-27T18:04:39.183Z,57.08
2022-07-27T18:07:24.694Z,57.00
2022-07-27T18:10:10.232Z,58.04
2022-07-27T18:12:55.694Z,58.02
2022-07-27T18:15:40.850Z,58.75
2022-07-27T18:18:27.233Z,60.65
2022-07-27T18:21:12.753Z,58.90
2022-07-27T18:23:58.094Z,58.72
2022-07-27T18:26:43.389Z,58.21
2022-07-27T18:29:28.489Z,57.91
2022-07-27T18:32:13.836Z,57.38
2022-07-27T18:34:59.314Z,58.46
2022-07-27T18:37:44.678Z,61.58
2022-07-27T18:40:45.463Z,62.77
2022-07-27T18:43:31.065Z,62.16
2022-07-27T18:46:20.809Z,63.21
2022-07-27T18:49:06.174Z,62.22
2022-07-27T18:51:54.680Z,63.16
2022-07-27T18:54:39.777Z,64.43
2022-07-27T18:57:25.164Z,64.83
2022-07-27T19:00:11.585Z,64.54
2022-07-27T19:02:58.627Z,64.82
2022-07-27T19:05:43.680Z,65.64
2022-07-27T19:08:30.780Z,66.90
2022-07-27T19:11:18.583Z,68.62
2022-07-27T19:14:03.515Z,69.34
2022-07-27T19:16:50.007Z,69.68
2022-07-27T19:19:35.339Z,70.55
2022-07-27T19:22:20.356Z,71.37
2022-07-27T19:25:06.124Z,70.83
2022-07-27T19:27:54.506Z,71.88
2022-07-27T19:30:40.508Z,73.02
2022-07-27T19:33:25.853Z,73.43
2022-07-27T19:36:11.216Z,74.00
2022-07-27T19:38:56.608Z,73.67
2022-07-27T19:41:42.416Z,75.15
2022-07-27T19:44:27.915Z,73.58
2022-07-27T19:47:13.751Z,74.53
2022-07-27T19:49:59.108Z,74.40
2022-07-27T19:52:44.414Z,74.04
2022-07-27T19:55:29.961Z,75.09
2022-07-27T19:58:15.521Z,76.05
2022-07-27T20:01:00.669Z,76.89
2022-07-27T20:03:52.146Z,78.12
2022-07-27T20:06:40.245Z,78.67
2022-07-27T20:09:25.479Z,78.83
2022-07-27T20:12:10.815Z,79.93
2022-07-27T20:14:56.284Z,80.63
2022-07-27T20:17:41.706Z,80.85
2022-07-27T20:20:27.257Z,80.18
2022-07-27T20:23:13.064Z,80.40
2022-07-27T20:25:58.411Z,81.00
2022-07-27T20:28:43.467Z,81.93
2022-07-27T20:31:28.665Z,82.41
2022-07-27T20:34:14.042Z,82.36
2022-07-27T20:36:59.261Z,81.96
2022-07-27T20:39:44.111Z,82.59
2022-07-27T20:42:29.420Z,82.81
2022-07-27T20:45:14.855Z,82.35
2022-07-27T20:48:00.136Z,82.79
2022-07-27T20:50:44.913Z,82.89
2022-07-27T20:53:30.329Z,82.37
2022-07-27T20:56:15.670Z,82.72
2022-07-27T20:59:01.075Z,83.43
2022-07-27T21:01:46.402Z,83.15
2022-07-27T21:04:31.605Z,83.56
2022-07-27T21:07:17.425Z,85.21
2022-07-27T21:10:03.938Z,86.14
2022-07-27T21:12:49.518Z,85.43
2022-07-27T21:15:35.125Z,84.91
2022-07-27T21:18:20.478Z,85.50
2022-07-27T21:21:05.916Z,87.34
2022-07-27T21:23:51.274Z,86.68
2022-07-27T21:26:36.695Z,85.00
2022-07-27T21:29:23.008Z,85.25
2022-07-27T21:32:08.476Z,85.37
2022-07-27T21:34:53.848Z,85.40
2022-07-27T21:37:39.174Z,85.04
2022-07-27T21:40:24.934Z,85.39
2022-07-27T21:43:10.141Z,84.94
2022-07-27T21:45:55.511Z,84.72
2022-07-27T21:48:40.980Z,84.63
2022-07-27T21:51:26.236Z,85.39
2022-07-27T21:54:11.960Z,86.22
2022-07-27T21:56:57.087Z,86.52
2022-07-27T21:59:42.562Z,86.16
2022-07-27T22:02:28.151Z,86.81
2022-07-27T22:05:13.869Z,87.28
2022-07-27T22:07:59.254Z,87.34
2022-07-27T22:10:44.483Z,88.00
2022-07-27T22:13:30.380Z,87.84
2022-07-27T22:16:16.036Z,87.86
2022-07-27T22:19:01.407Z,87.41
2022-07-27T22:21:47.299Z,88.04
2022-07-27T22:24:32.705Z,87.24
2022-07-27T22:27:18.004Z,86.34
2022-07-27T22:30:05.913Z,86.39
2022-07-27T22:32:51.070Z,86.56
2022-07-27T22:35:36.680Z,86.48
2022-07-27T22:38:21.970Z,86.58
2022-07-27T22:41:07.299Z,86.98
2022-07-27T22:43:52.482Z,87.29
2022-07-27T22:46:37.892Z,87.49
2022-07-27T22:49:23.215Z,88.18
2022-07-27T22:52:08.584Z,88.32
2022-07-27T22:54:53.974Z,87.46
2022-07-27T22:57:39.487Z,87.61
2022-07-27T23:00:24.309Z,87.79
2022-07-27T23:03:09.849Z,85.68
2022-07-27T23:05:55.169Z,83.74
2022-07-27T23:08:40.675Z,83.17
2022-07-27T23:11:26.048Z,84.07
2022-07-27T23:14:13.078Z,84.92
2022-07-27T23:16:58.455Z,84.81
2022-07-27T23:19:43.806Z,82.52
2022-07-27T23:22:29.216Z,81.54
2022-07-27T23:25:14.706Z,80.93
2022-07-27T23:27:59.901Z,80.63
2022-07-27T23:30:44.809Z,80.07
2022-07-27T23:36:56.490Z,79.99
2022-07-27T23:39:42.015Z,81.42
2022-07-27T23:42:27.547Z,82.01
2022-07-27T23:45:12.876Z,80.47
2022-07-27T23:47:58.276Z,80.43
2022-07-27T23:53:29.261Z,83.22
2022-07-27T23:56:15.081Z,84.84
2022-07-27T23:58:59.891Z,84.72
